Latest Weather Observations for Clare

IDS60801

Issued at 5:05 pm CDT Friday 28 November 2014 (issued every 30 minutes, with the page automatically refreshed every 10 minutes)

About weather observations | Map of weather stations | Latest weather observations for SA | Other Formats
Station Details ID: 021131 Name: CLARE HIGH SCHOOL Lat: -33.82 Lon: 138.59 Height: 395.0 m
Data from the previous 72 hours. | See also: Recent months at Clare
Date/Time
CDT
Temp
°C
App
Temp
°C
Dew
Point
Rel
Hum
%
Delta-T
°C
Wind Press
QNH
hPa
Press
MSL
hPa
Rain
since 9 am
mm
Dir
 
Spd
km/h
Gust
km/h
Spd
kts
Gust
kts
28/05:00pm 27.9 22.6 2.9 20 12.6 S 20 28 11 15 1015.6 - 0.0
28/04:30pm 29.1 25.9 0.7 16 13.9 WSW 7 22 4 12 1015.7 - 0.0
28/04:00pm 30.0 25.9 -0.4 14 14.7 SW 11 22 6 12 1015.7 - 0.0
28/03:30pm 30.3 27.0 -0.1 14 14.8 SE 7 19 4 10 1016.0 - 0.0
28/03:00pm 30.1 26.0 -0.3 14 14.7 SW 11 22 6 12 1016.2 1015.3 0.0
28/02:30pm 29.2 24.6 -1.0 14 14.4 WSW 13 20 7 11 1016.6 - 0.0
28/02:00pm 29.5 25.5 0.2 15 14.3 WNW 11 17 6 9 1016.9 - 0.0
28/01:30pm 29.7 25.3 0.3 15 14.3 ENE 13 19 7 10 1017.2 - 0.0
28/01:00pm 28.9 27.1 1.4 17 13.6 CALM 0 19 0 10 1017.7 - 0.0
28/12:30pm 28.5 25.5 1.1 17 13.4 W 6 17 3 9 1018.3 - 0.0
28/12:00pm 27.3 23.7 0.9 18 12.8 N 9 15 5 8 1018.8 1017.9 0.0
28/11:30am 27.1 24.1 2.2 20 12.3 ESE 7 13 4 7 1019.1 - 0.0
28/11:00am 26.4 23.4 1.7 20 12.1 ENE 7 15 4 8 1019.4 - 0.0
28/10:30am 26.3 23.3 0.9 19 12.2 E 6 13 3 7 1019.7 - 0.0
28/10:00am 24.6 20.6 0.8 21 11.3 NNE 11 17 6 9 1020.0 - 0.0
28/09:30am 23.9 19.8 2.1 24 10.6 NE 13 20 7 11 1020.2 - 0.0
28/09:00am 22.1 18.6 3.3 29 9.2 E 11 15 6 8 1020.4 1019.6 0.0
28/08:30am 20.3 16.7 3.1 32 8.3 E 11 17 6 9 1020.6 - 0.0
28/08:00am 18.7 15.1 2.9 35 7.5 ENE 11 17 6 9 1020.4 - 0.0
28/07:30am 18.0 15.1 2.7 36 7.2 E 7 13 4 7 1020.1 - 0.0
28/07:00am 16.4 13.5 2.4 39 6.4 ESE 7 11 4 6 1020.0 - 0.0
28/06:30am 14.7 11.7 2.3 43 5.6 ESE 7 13 4 7 1019.7 - 0.0
28/06:00am 14.7 11.8 1.6 41 5.8 ESE 6 13 3 7 1019.6 1018.7 0.0
28/05:30am 14.6 11.6 1.8 42 5.7 ESE 7 13 4 7 1019.4 - 0.0
28/05:00am 14.7 12.2 1.6 41 5.8 ESE 4 11 2 6 1019.3 - 0.0
28/04:30am 15.2 12.3 1.4 39 6.2 E 6 9 3 5 1019.1 - 0.0
28/04:00am 14.9 12.3 1.1 39 6.1 E 4 7 2 4 1019.0 - 0.0
28/03:30am 15.8 12.6 0.8 36 6.6 E 7 13 4 7 1019.0 - 0.0
28/03:00am 14.8 12.2 1.0 39 6.1 E 4 7 2 4 1018.9 1018.0 0.0
28/02:30am 16.9 13.7 0.5 33 7.3 ESE 7 13 4 7 1019.0 - 0.0
28/02:00am 16.8 13.2 0.9 34 7.1 ESE 9 13 5 7 1019.3 - 0.0
28/01:30am 17.1 14.0 1.5 35 7.1 ESE 7 13 4 7 1019.5 - 0.0
28/01:00am 17.4 14.4 1.8 35 7.1 ESE 7 13 4 7 1019.8 - 0.0
28/12:30am 17.6 14.7 2.4 36 7.1 ESE 7 13 4 7 1020.1 - 0.0
28/12:00am 17.6 14.7 2.8 37 6.9 ESE 7 13 4 7 1020.7 1019.8 0.0
 
Date/Time
CDT
Temp
°C
App
Temp
°C
Dew
Point
Rel
Hum
%
Delta-T
°C
Wind Press
QNH
hPa
Press
MSL
hPa
Rain
since 9 am
mm
Dir
 
Spd
km/h
Gust
km/h
Spd
kts
Gust
kts
27/11:30pm 17.9 15.0 2.6 36 7.2 ESE 7 13 4 7 1020.8 - 0.0
27/11:00pm 18.2 15.5 2.9 36 7.2 ESE 6 13 3 7 1020.8 - 0.0
27/10:30pm 18.6 15.4 2.9 35 7.4 ESE 9 17 5 9 1020.9 - 0.0
27/10:00pm 19.1 15.9 2.9 34 7.7 ESE 9 17 5 9 1021.0 - 0.0
27/09:30pm 20.1 16.6 3.3 33 8.1 ESE 11 20 6 11 1020.9 - 0.0
27/09:00pm 20.4 17.9 6.7 41 7.0 SE 9 15 5 8 1020.8 1019.9 0.0
27/08:30pm 20.8 18.3 8.1 44 6.7 S 11 17 6 9 1020.8 - 0.0
27/08:00pm 21.9 18.6 8.1 41 7.4 S 15 20 8 11 1020.7 - 0.0
27/07:30pm 22.9 19.2 7.8 38 8.1 S 17 26 9 14 1020.4 - 0.0
27/07:00pm 24.7 21.0 7.8 34 9.1 SSE 17 33 9 18 1020.1 - 0.0
27/06:30pm 26.2 22.5 4.6 25 11.1 E 13 22 7 12 1019.7 - 0.0
27/06:00pm 27.0 23.6 5.9 26 11.1 SE 13 22 7 12 1019.5 1018.6 0.0
27/05:30pm 26.8 23.9 4.6 24 11.5 SSE 9 17 5 9 1019.6 - 0.0
27/05:00pm 27.7 24.5 5.3 24 11.8 SE 11 17 6 9 1019.7 - 0.0
27/04:30pm 27.2 24.1 5.5 25 11.4 SE 11 24 6 13 1019.8 - 0.0
27/04:00pm 26.9 23.5 4.0 23 11.7 SE 11 17 6 9 1020.0 - 0.0
27/03:30pm 27.1 24.0 5.4 25 11.4 E 11 24 6 13 1020.2 - 0.0
27/03:00pm 26.3 23.1 5.3 26 10.9 ESE 11 20 6 11 1020.6 1019.7 0.0
27/02:30pm 25.8 23.3 4.9 26 10.8 E 7 19 4 10 1021.0 - 0.0
27/02:00pm 25.6 22.0 5.2 27 10.6 S 13 26 7 14 1021.2 - 0.0
27/01:30pm 25.6 23.4 6.3 29 10.2 ESE 7 19 4 10 1021.5 - 0.0
27/01:00pm 24.3 21.3 6.1 31 9.5 NE 11 24 6 13 1021.9 - 0.0
27/12:30pm 23.4 20.0 5.8 32 9.1 NNE 13 20 7 11 1022.2 - 0.0
27/12:00pm 23.1 19.7 6.0 33 8.8 E 13 22 7 12 1022.4 1021.5 0.0
27/11:30am 23.0 19.9 7.1 36 8.4 E 13 22 7 12 1022.7 - 0.0
27/11:00am 21.5 18.0 7.0 39 7.6 ENE 15 22 8 12 1022.9 - 0.0
27/10:30am 21.0 17.5 8.6 45 6.6 E 17 26 9 14 1023.1 - 0.0
27/10:00am 20.1 16.6 8.8 48 6.0 E 17 32 9 17 1023.3 - 0.0
27/09:30am 19.4 16.1 9.6 53 5.3 ENE 17 30 9 16 1023.5 - 0.0
27/09:00am 17.7 14.1 9.8 60 4.2 E 19 28 10 15 1023.6 1022.7 0.0
27/08:30am 16.8 13.2 9.7 63 3.8 E 19 33 10 18 1023.5 - 0.0
27/08:00am 15.6 13.2 10.2 70 2.9 E 13 24 7 13 1023.5 - 0.0
27/07:30am 14.2 11.3 9.8 75 2.3 E 15 26 8 14 1023.3 - 0.0
27/07:00am 13.4 10.5 9.8 79 1.9 E 15 22 8 12 1023.3 - 0.0
27/06:30am 12.5 10.4 9.9 84 1.4 E 11 20 6 11 1023.0 - 0.0
27/06:00am 12.6 9.7 9.8 83 1.5 E 15 24 8 13 1022.8 1022.0 0.0
27/05:30am 12.7 10.2 9.7 82 1.6 E 13 22 7 12 1022.5 - 0.0
27/05:00am 12.9 10.3 9.4 79 1.8 E 13 28 7 15 1022.2 - 0.0
27/04:30am 13.0 9.9 8.9 76 2.1 E 15 24 8 13 1022.1 - 0.0
27/04:00am 13.0 11.1 8.9 76 2.1 E 9 15 5 8 1022.1 - 0.0
27/03:30am 13.0 11.4 8.9 76 2.1 ESE 7 17 4 9 1021.8 - 0.0
27/03:00am 13.0 11.1 8.9 76 2.1 ESE 9 17 5 9 1021.8 1020.9 0.0
27/02:30am 13.3 10.9 8.8 74 2.3 SE 11 24 6 13 1021.9 - 0.0
27/02:00am 13.7 10.5 8.5 71 2.7 ESE 15 26 8 14 1022.0 - 0.0
27/01:30am 14.0 11.5 8.0 67 3.0 E 11 20 6 11 1022.4 - 0.0
27/01:00am 14.3 11.7 7.6 64 3.4 ESE 11 22 6 12 1022.6 - 0.0
27/12:30am 14.4 12.1 7.5 63 3.5 ESE 9 19 5 10 1022.5 - 0.0
27/12:00am 14.5 12.1 7.1 61 3.7 ESE 9 17 5 9 1022.6 1021.8 0.0
 
Date/Time
CDT
Temp
°C
App
Temp
°C
Dew
Point
Rel
Hum
%
Delta-T
°C
Wind Press
QNH
hPa
Press
MSL
hPa
Rain
since 9 am
mm
Dir
 
Spd
km/h
Gust
km/h
Spd
kts
Gust
kts
26/11:30pm 14.7 12.3 6.8 59 3.9 ESE 9 19 5 10 1022.6 - 0.0
26/11:00pm 15.1 12.7 7.2 59 4.0 ESE 9 15 5 8 1022.6 - 0.0
26/10:30pm 15.4 13.0 6.9 57 4.3 ESE 9 20 5 11 1022.4 - 0.0
26/10:00pm 16.1 13.3 6.8 54 4.7 ESE 11 22 6 12 1022.1 - 0.0
26/09:30pm 16.7 13.8 6.5 51 5.1 ESE 11 22 6 12 1021.8 - 0.0
26/09:00pm 17.6 15.1 6.5 48 5.6 ESE 9 19 5 10 1021.7 1020.8 0.0
26/08:30pm 17.3 15.4 9.0 58 4.4 S 9 15 5 8 1021.6 - 0.0
26/08:00pm 18.3 16.4 9.1 55 4.9 SSW 9 13 5 7 1021.4 - 0.0
26/07:30pm 19.5 17.2 9.1 51 5.6 S 11 20 6 11 1021.3 - 0.0
26/07:00pm 20.4 17.0 9.0 48 6.1 S 17 28 9 15 1020.9 - 0.0
26/06:30pm 20.8 16.8 9.1 47 6.3 S 20 33 11 18 1020.4 - 0.0
26/06:00pm 22.4 18.2 8.1 40 7.6 S 20 35 11 19 1020.1 1019.2 0.0
26/05:30pm 23.6 19.1 6.0 32 9.1 SSW 19 32 10 17 1020.0 - 0.0
26/05:00pm 24.0 18.6 -1.0 19 11.4 S 17 28 9 15 1020.0 - 0.0
26/04:30pm 24.5 20.3 1.4 22 11.1 SE 13 22 7 12 1020.3 - 0.0
26/04:00pm 24.5 21.3 -0.6 19 11.6 NE 6 17 3 9 1020.6 - 0.0
26/03:30pm 23.9 20.1 -1.1 19 11.4 SSE 9 19 5 10 1020.7 - 0.0
26/03:00pm 24.4 19.1 -0.7 19 11.5 S 17 26 9 14 1020.8 1019.9 0.0
26/02:30pm 24.5 20.3 1.4 22 11.1 WSW 13 20 7 11 1021.1 - 0.0
26/02:00pm 23.4 19.3 2.3 25 10.2 WSW 13 22 7 12 1021.4 - 0.0
26/01:30pm 23.9 20.3 4.8 29 9.7 W 13 20 7 11 1021.7 - 0.0
26/01:00pm 22.4 18.9 3.5 29 9.3 WSW 11 20 6 11 1022.1 - 0.0
26/12:30pm 22.0 19.4 4.1 31 8.9 SE 7 15 4 8 1022.4 - 0.0
26/12:00pm 21.7 19.5 5.2 34 8.3 NE 6 9 3 5 1022.9 1022.1 0.0
26/11:30am 19.9 17.6 4.8 37 7.5 WNW 6 11 3 6 1023.4 - 0.0
26/11:00am 18.8 16.4 5.3 41 6.7 NNW 7 15 4 8 1023.6 - 0.0
26/10:30am 17.6 15.4 5.2 44 6.1 ESE 6 9 3 5 1023.7 - 0.0
26/10:00am 17.7 15.6 6.6 48 5.6 E 7 13 4 7 1023.7 - 0.0
26/09:30am 16.0 13.1 6.4 53 4.8 ENE 11 17 6 9 1023.7 - 0.0
26/09:00am 14.7 11.0 6.3 57 4.1 ENE 15 24 8 13 1023.6 1022.7 0.0
26/08:30am 13.7 11.0 7.2 65 3.2 ENE 11 17 6 9 1023.4 - 0.0
26/08:00am 12.6 10.4 7.7 72 2.4 E 9 17 5 9 1023.1 - 0.0
26/07:30am 11.2 8.8 6.9 75 2.1 E 9 17 5 9 1022.7 - 0.0
26/07:00am 10.5 8.1 6.8 78 1.8 E 9 13 5 7 1022.4 - 0.0
26/06:30am 9.3 7.2 6.6 83 1.3 E 7 13 4 7 1022.4 - 0.0
26/06:00am 9.2 7.1 6.6 84 1.2 E 7 13 4 7 1022.0 1021.1 0.0
26/05:30am 9.2 7.1 6.6 84 1.2 E 7 13 4 7 1021.7 - 0.0
26/05:00am 9.2 7.1 6.8 85 1.1 ESE 7 11 4 6 1021.5 - 0.0
26/04:30am 9.3 7.4 6.7 84 1.2 E 6 9 3 5 1021.6 - 0.0
26/04:00am 9.4 7.5 6.7 83 1.3 E 6 7 3 4 1021.6 - 0.0
26/03:30am 9.9 7.8 6.8 81 1.5 E 7 9 4 5 1021.6 - 0.0
26/03:00am 10.2 8.1 6.7 79 1.7 ESE 7 13 4 7 1021.4 1020.5 0.0
26/02:30am 10.5 8.4 6.6 77 1.9 E 7 15 4 8 1021.5 - 0.0
26/02:00am 10.8 8.7 6.6 75 2.0 E 7 13 4 7 1021.7 - 0.0
26/01:30am 11.0 8.9 6.6 74 2.1 ESE 7 13 4 7 1022.0 - 0.0
26/01:00am 11.2 9.0 6.3 72 2.4 E 7 13 4 7 1022.2 - 0.0
26/12:30am 11.2 8.9 5.9 70 2.5 ESE 7 13 4 7 1022.2 - 0.0
26/12:00am 11.7 9.4 5.8 67 2.8 SE 7 11 4 6 1022.4 1021.5 0.0
 
Date/Time
CDT
Temp
°C
App
Temp
°C
Dew
Point
Rel
Hum
%
Delta-T
°C
Wind Press
QNH
hPa
Press
MSL
hPa
Rain
since 9 am
mm
Dir
 
Spd
km/h
Gust
km/h
Spd
kts
Gust
kts
25/11:30pm 11.9 9.7 6.0 67 2.8 SE 7 13 4 7 1022.5 - 0.0
25/11:00pm 12.4 10.1 4.9 60 3.5 SE 6 11 3 6 1022.6 - 0.0
25/10:30pm 13.0 10.4 4.4 56 4.0 S 7 11 4 6 1022.8 - 0.0
25/10:00pm 13.5 10.2 4.4 54 4.3 S 11 17 6 9 1022.6 - 0.0
25/09:30pm 13.8 10.1 4.7 54 4.3 S 13 17 7 9 1022.6 - 0.0
25/09:00pm 14.0 10.7 4.6 53 4.4 SSE 11 19 6 10 1022.4 1021.5 0.0
25/08:30pm 14.7 11.0 4.7 51 4.8 S 13 19 7 10 1022.2 - 0.0
25/08:00pm 15.5 11.4 4.5 48 5.2 S 15 24 8 13 1022.1 - 0.0
25/07:30pm 16.6 12.2 4.6 45 5.8 S 17 28 9 15 1021.9 - 0.0
25/07:00pm 17.9 13.1 4.8 42 6.4 SSW 19 33 10 18 1021.6 - 0.0
25/06:30pm 19.1 14.1 3.7 36 7.4 S 19 28 10 15 1021.1 - 0.0
25/06:00pm 19.7 14.7 3.4 34 7.8 S 19 32 10 17 1020.9 1020.0 0.0
25/05:30pm 21.1 16.6 1.9 28 9.1 S 15 26 8 14 1020.8 - 0.0

Other Formats:

Comma delimited format used in spreadsheet applications
http://www.bom.gov.au/fwo/IDS60801/IDS60801.95667.axf

JavaScript Object Notation format (JSON) in row-major order
http://www.bom.gov.au/fwo/IDS60801/IDS60801.95667.json